Time,TemperatureF,DewpointF,PressureIn,WindDirection,WindDirectionDegrees,WindSpeedMPH,WindSpeedGustMPH,Humidity,HourlyPrecipIn,Conditions,Clouds,dailyrainin,SolarRadiationWatts/m^2,SoftwareType,DateUTC
2013-01-30 00:07:00,43.0,16.0,29.84,ENE,67,0.0,0.0,25,0.00,,,-99.99,0.0,Linux-Irox,2013-01-30 08:07:00,
2013-01-30 00:17:00,42.4,15.8,29.85,ESE,112,0.0,0.0,26,0.00,,,-99.99,0.0,Linux-Irox,2013-01-30 08:17:00,
2013-01-30 00:27:00,42.3,16.0,29.85,ENE,67,0.0,0.0,27,0.00,,,-99.99,0.0,Linux-Irox,2013-01-30 08:27:00,
2013-01-30 00:37:00,42.1,16.5,29.85,NE,45,0.0,0.0,29,0.00,,,-99.99,0.0,Linux-Irox,2013-01-30 08:37:00,
2013-01-30 00:47:00,43.0,16.7,29.85,ENE,67,0.0,0.0,27,0.00,,,-99.99,0.0,Linux-Irox,2013-01-30 08:47:00,
2013-01-30 00:57:00,44.2,16.9,29.84,ENE,67,0.0,1.1,24,0.00,,,-99.99,0.0,Linux-Irox,2013-01-30 08:57:00,
2013-01-30 01:07:00,43.5,15.8,29.84,East,90,0.0,0.0,23,0.00,,,-99.99,0.0,Linux-Irox,2013-01-30 09:07:00,
2013-01-30 01:17:00,42.6,15.3,29.84,East,90,0.0,0.0,24,0.00,,,-99.99,0.0,Linux-Irox,2013-01-30 09:17:00,
2013-01-30 01:27:00,42.6,15.6,29.84,ENE,67,0.0,0.0,25,0.00,,,-99.99,0.0,Linux-Irox,2013-01-30 09:27:00,
2013-01-30 01:37:00,42.8,15.8,29.85,East,90,0.2,1.1,25,0.00,,,-99.99,0.0,Linux-Irox,2013-01-30 09:37:00,
2013-01-30 01:47:00,42.6,15.3,29.85,NE,45,0.0,0.0,24,0.00,,,-99.99,0.0,Linux-Irox,2013-01-30 09:47:00,
2013-01-30 01:57:00,42.6,15.6,29.84,NE,45,0.0,0.0,25,0.00,,,-99.99,0.0,Linux-Irox,2013-01-30 09:57:00,
2013-01-30 02:07:00,42.4,15.1,29.84,ENE,67,0.0,0.0,24,0.00,,,-99.99,0.0,Linux-Irox,2013-01-30 10:07:00,
2013-01-30 02:17:00,42.1,15.1,29.85,ENE,67,0.0,0.0,25,0.00,,,-99.99,0.0,Linux-Irox,2013-01-30 10:17:00,
2013-01-30 02:27:00,42.1,14.7,29.85,ENE,67,0.0,0.0,24,0.00,,,-99.99,0.0,Linux-Irox,2013-01-30 10:27:00,
2013-01-30 02:37:00,42.6,15.6,29.84,NNW,337,0.2,0.9,25,0.00,,,-99.99,0.0,Linux-Irox,2013-01-30 10:37:00,
2013-01-30 02:47:00,43.2,15.8,29.84,North,0,0.0,0.0,24,0.00,,,-99.99,0.0,Linux-Irox,2013-01-30 10:47:00,
2013-01-30 02:57:00,42.8,15.4,29.85,ENE,67,0.0,0.0,24,0.00,,,-99.99,0.0,Linux-Irox,2013-01-30 10:57:00,
2013-01-30 03:07:00,42.6,15.3,29.85,ENE,67,0.0,0.0,24,0.00,,,-99.99,0.0,Linux-Irox,2013-01-30 11:07:00,
2013-01-30 03:17:00,43.3,15.6,29.84,East,90,0.0,1.3,23,0.00,,,-99.99,0.0,Linux-Irox,2013-01-30 11:17:00,
2013-01-30 03:27:00,43.5,15.8,29.84,ENE,67,0.0,0.0,23,0.00,,,-99.99,0.0,Linux-Irox,2013-01-30 11:27:00,
2013-01-30 03:37:00,42.8,15.1,29.85,ENE,67,0.0,0.0,23,0.00,,,-99.99,0.0,Linux-Irox,2013-01-30 11:37:00,
2013-01-30 03:47:00,43.0,15.3,29.85,ENE,67,0.0,0.0,23,0.00,,,-99.99,0.0,Linux-Irox,2013-01-30 11:47:00,
2013-01-30 03:57:00,43.0,15.3,29.84,NE,45,0.0,0.0,23,0.00,,,-99.99,0.0,Linux-Irox,2013-01-30 11:57:00,
2013-01-30 04:07:00,42.6,14.5,29.84,NE,45,0.0,0.0,22,0.00,,,-99.99,0.0,Linux-Irox,2013-01-30 12:07:00,
2013-01-30 04:17:00,42.6,14.5,29.83,NNE,22,0.0,0.0,22,0.00,,,-99.99,0.0,Linux-Irox,2013-01-30 12:17:00,
2013-01-30 04:27:00,42.1,14.4,29.83,NW,315,0.0,0.0,23,0.00,,,-99.99,0.0,Linux-Irox,2013-01-30 12:27:00,
2013-01-30 04:37:00,42.4,14.7,29.83,NE,45,0.0,0.0,23,0.00,,,-99.99,0.0,Linux-Irox,2013-01-30 12:37:00,
2013-01-30 04:47:00,42.6,14.9,29.83,SSE,157,0.0,0.0,23,0.00,,,-99.99,0.0,Linux-Irox,2013-01-30 12:47:00,
2013-01-30 04:57:00,42.4,14.4,29.83,East,90,0.0,0.0,22,0.00,,,-99.99,0.0,Linux-Irox,2013-01-30 12:57:00,
2013-01-30 05:07:00,41.7,14.0,29.83,NNE,22,0.0,0.0,23,0.00,,,-99.99,0.0,Linux-Irox,2013-01-30 13:07:00,
2013-01-30 05:17:00,41.5,13.8,29.83,NW,315,0.0,0.0,23,0.00,,,-99.99,0.0,Linux-Irox,2013-01-30 13:17:00,
2013-01-30 05:27:00,41.5,14.2,29.83,NNE,22,0.0,0.0,24,0.00,,,-99.99,0.0,Linux-Irox,2013-01-30 13:27:00,
2013-01-30 05:37:00,41.2,13.8,29.82,WNW,292,0.0,1.1,24,0.00,,,-99.99,0.0,Linux-Irox,2013-01-30 13:37:00,
2013-01-30 05:47:00,41.0,13.6,29.82,ENE,67,0.0,0.0,24,0.00,,,-99.99,0.0,Linux-Irox,2013-01-30 13:47:00,
2013-01-30 05:57:00,40.6,14.0,29.83,NE,45,0.0,0.0,26,0.00,,,-99.99,0.0,Linux-Irox,2013-01-30 13:57:00,
2013-01-30 06:01:00,40.8,14.2,29.83,NNE,22,0.0,0.0,26,0.00,,,-99.99,0.0,Linux-Irox,2013-01-30 14:01:00,
2013-01-30 06:07:00,40.8,14.2,29.83,NNE,22,0.0,0.0,26,0.00,,,-99.99,0.0,Linux-Irox,2013-01-30 14:07:00,
2013-01-30 06:16:00,41.0,14.0,29.83,NE,45,0.2,0.0,25,0.00,,,-99.99,0.0,Linux-Irox,2013-01-30 14:16:00,
2013-01-30 06:17:00,41.0,14.0,29.83,NE,45,0.0,0.0,25,0.00,,,-99.99,0.0,Linux-Irox,2013-01-30 14:17:00,
2013-01-30 06:27:00,40.6,14.4,29.83,NE,45,0.0,0.0,27,0.00,,,-99.99,0.0,Linux-Irox,2013-01-30 14:27:00,
2013-01-30 06:31:00,40.5,14.2,29.83,ENE,67,0.0,0.0,27,0.00,,,-99.99,0.0,Linux-Irox,2013-01-30 14:31:00,
2013-01-30 06:37:00,39.6,13.3,29.83,NNW,337,0.0,0.0,27,0.00,,,-99.99,0.0,Linux-Irox,2013-01-30 14:37:00,
2013-01-30 06:46:00,39.2,13.3,29.83,NE,45,0.0,0.0,28,0.00,,,-99.99,0.0,Linux-Irox,2013-01-30 14:46:00,
2013-01-30 06:47:00,38.8,13.6,29.83,NNE,22,0.0,0.0,30,0.00,,,-99.99,0.0,Linux-Irox,2013-01-30 14:47:00,
2013-01-30 06:57:00,38.8,13.6,29.84,East,90,0.0,0.0,30,0.00,,,-99.99,0.0,Linux-Irox,2013-01-30 14:57:00,
2013-01-30 07:01:00,38.5,13.3,29.84,NW,315,0.0,0.0,30,0.00,,,-99.99,0.0,Linux-Irox,2013-01-30 15:01:00,
2013-01-30 07:07:00,37.9,12.7,29.84,NE,45,0.0,0.0,30,0.00,,,-99.99,0.0,Linux-Irox,2013-01-30 15:07:00,
2013-01-30 07:16:00,38.3,13.1,29.84,NE,45,0.0,0.0,30,0.00,,,-99.99,0.0,Linux-Irox,2013-01-30 15:16:00,
2013-01-30 07:17:00,38.3,13.1,29.86,NNW,337,0.0,0.0,30,0.00,,,-99.99,0.0,Linux-Irox,2013-01-30 15:17:00,
2013-01-30 07:27:00,37.9,12.7,29.86,NNE,22,0.0,0.0,30,0.00,,,-99.99,0.0,Linux-Irox,2013-01-30 15:27:00,
2013-01-30 07:31:00,37.8,12.6,29.86,ENE,67,0.0,0.0,30,0.00,,,-99.99,0.0,Linux-Irox,2013-01-30 15:31:00,
2013-01-30 07:37:00,38.1,12.9,29.86,WSW,247,0.0,0.0,30,0.00,,,-99.99,0.0,Linux-Irox,2013-01-30 15:37:00,
2013-01-30 07:47:00,38.5,13.3,29.86,NNW,337,0.0,0.0,30,0.00,,,-99.99,0.0,Linux-Irox,2013-01-30 15:47:00,
2013-01-30 07:57:00,39.7,14.5,29.85,ENE,67,0.0,0.0,30,0.00,,,-99.99,0.0,Linux-Irox,2013-01-30 15:57:00,
2013-01-30 08:01:00,39.9,14.7,29.85,ENE,67,0.0,0.0,30,0.00,,,-99.99,0.0,Linux-Irox,2013-01-30 16:01:00,
2013-01-30 08:07:00,40.6,15.4,29.85,ENE,67,0.0,0.0,30,0.00,,,-99.99,0.0,Linux-Irox,2013-01-30 16:07:00,
2013-01-30 08:16:00,41.2,16.0,29.85,West,270,0.0,0.0,30,0.00,,,-99.99,0.0,Linux-Irox,2013-01-30 16:16:00,
2013-01-30 08:17:00,41.4,16.2,29.86,WSW,247,0.0,0.0,30,0.00,,,-99.99,0.0,Linux-Irox,2013-01-30 16:17:00,
2013-01-30 08:27:00,42.3,17.1,29.86,East,90,0.0,0.0,30,0.00,,,-99.99,0.0,Linux-Irox,2013-01-30 16:27:00,
2013-01-30 08:31:00,42.8,17.2,29.86,ESE,112,0.0,0.0,29,0.00,,,-99.99,0.0,Linux-Irox,2013-01-30 16:31:00,
2013-01-30 08:37:00,43.5,17.2,29.87,ESE,112,0.0,0.0,27,0.00,,,-99.99,0.0,Linux-Irox,2013-01-30 16:37:00,
2013-01-30 08:46:00,45.0,18.0,29.87,WSW,247,0.2,0.0,25,0.00,,,-99.99,0.0,Linux-Irox,2013-01-30 16:46:00,
2013-01-30 08:47:00,45.3,18.3,29.87,WSW,247,0.2,1.1,25,0.00,,,-99.99,0.0,Linux-Irox,2013-01-30 16:47:00,
2013-01-30 08:57:00,46.6,18.9,29.87,SE,135,0.9,1.8,23,0.00,,,-99.99,0.0,Linux-Irox,2013-01-30 16:57:00,
2013-01-30 09:01:00,47.5,19.8,29.87,SW,225,2.0,0.0,23,0.00,,,-99.99,0.0,Linux-Irox,2013-01-30 17:01:00,
2013-01-30 09:07:00,48.4,19.9,29.87,West,270,0.7,0.9,21,0.00,,,-99.99,0.0,Linux-Irox,2013-01-30 17:07:00,
2013-01-30 09:16:00,50.2,21.4,29.87,SSE,157,0.7,0.0,20,0.00,,,-99.99,0.0,Linux-Irox,2013-01-30 17:16:00,
2013-01-30 09:17:00,50.2,21.4,29.87,SE,135,0.4,2.2,20,0.00,,,-99.99,0.0,Linux-Irox,2013-01-30 17:17:00,
2013-01-30 09:27:00,50.4,20.8,29.87,SE,135,0.9,1.1,18,0.00,,,-99.99,0.0,Linux-Irox,2013-01-30 17:27:00,
2013-01-30 09:31:00,50.4,20.8,29.87,SE,135,1.8,4.9,18,0.00,,,-99.99,0.0,Linux-Irox,2013-01-30 17:31:00,
2013-01-30 09:37:00,50.7,21.2,29.87,SE,135,0.9,2.2,18,0.00,,,-99.99,0.0,Linux-Irox,2013-01-30 17:37:00,
2013-01-30 09:46:00,50.9,20.3,29.87,South,180,2.2,0.0,15,0.00,,,-99.99,0.0,Linux-Irox,2013-01-30 17:46:00,
2013-01-30 09:47:00,51.4,20.8,29.87,South,180,0.9,1.1,15,0.00,,,-99.99,0.0,Linux-Irox,2013-01-30 17:47:00,
2013-01-30 09:57:00,52.7,21.4,29.87,SE,135,0.7,1.3,13,0.00,,,-99.99,0.0,Linux-Irox,2013-01-30 17:57:00,
2013-01-30 10:01:00,52.7,21.4,29.87,ESE,112,2.5,4.9,13,0.00,,,-99.99,0.0,Linux-Irox,2013-01-30 18:01:00,
2013-01-30 10:07:00,53.4,22.1,29.87,West,270,1.3,2.7,13,0.00,,,-99.99,0.0,Linux-Irox,2013-01-30 18:07:00,
2013-01-30 10:16:00,53.8,21.7,29.87,SE,135,2.5,0.0,11,0.00,,,-99.99,0.0,Linux-Irox,2013-01-30 18:16:00,
2013-01-30 10:17:00,53.8,21.7,29.88,South,180,0.9,0.0,11,0.00,,,-99.99,0.0,Linux-Irox,2013-01-30 18:17:00,
2013-01-30 10:27:00,54.7,22.3,29.88,ESE,112,1.1,2.7,10,0.00,,,-99.99,0.0,Linux-Irox,2013-01-30 18:27:00,
2013-01-30 10:31:00,54.7,22.3,29.88,SSE,157,2.7,3.3,10,0.00,,,-99.99,0.0,Linux-Irox,2013-01-30 18:31:00,
2013-01-30 10:37:00,54.9,22.5,29.88,SE,135,1.1,2.2,10,0.00,,,-99.99,0.0,Linux-Irox,2013-01-30 18:37:00,
2013-01-30 10:46:00,55.0,22.6,29.88,West,270,2.7,2.7,10,0.00,,,-99.99,0.0,Linux-Irox,2013-01-30 18:46:00,
2013-01-30 10:47:00,55.4,23.4,29.88,SE,135,1.1,1.1,11,0.00,,,-99.99,0.0,Linux-Irox,2013-01-30 18:47:00,
2013-01-30 10:57:00,55.9,23.9,29.88,SE,135,1.1,1.3,11,0.00,,,-99.99,0.0,Linux-Irox,2013-01-30 18:57:00,
2013-01-30 11:01:00,55.6,23.5,29.88,SSE,157,3.6,3.6,11,0.00,,,-99.99,0.0,Linux-Irox,2013-01-30 19:01:00,
2013-01-30 11:07:00,55.8,23.7,29.88,SW,225,1.3,1.3,11,0.00,,,-99.99,0.0,Linux-Irox,2013-01-30 19:07:00,
2013-01-30 11:16:00,55.9,23.9,29.88,WSW,247,2.0,0.0,11,0.00,,,-99.99,0.0,Linux-Irox,2013-01-30 19:16:00,
2013-01-30 11:17:00,56.5,24.4,29.86,SE,135,1.1,2.0,11,0.00,,,-99.99,0.0,Linux-Irox,2013-01-30 19:17:00,
2013-01-30 11:27:00,56.7,24.6,29.86,South,180,2.0,2.7,11,0.00,,,-99.99,0.0,Linux-Irox,2013-01-30 19:27:00,
2013-01-30 11:31:00,57.0,25.0,29.86,WSW,247,6.0,8.7,11,0.00,,,-99.99,0.0,Linux-Irox,2013-01-30 19:31:00,
2013-01-30 11:37:00,56.8,22.6,29.86,WSW,247,2.5,2.9,5,0.00,,,-99.99,0.0,Linux-Irox,2013-01-30 19:37:00,
2013-01-30 11:46:00,57.4,23.2,29.86,West,270,5.1,11.4,5,0.00,,,-99.99,0.0,Linux-Irox,2013-01-30 19:46:00,
2013-01-30 11:47:00,57.2,24.8,29.86,WSW,247,2.5,2.5,10,0.00,,,-99.99,0.0,Linux-Irox,2013-01-30 19:47:00,
2013-01-30 11:57:00,57.2,24.8,29.85,West,270,2.7,3.3,10,0.00,,,-99.99,0.0,Linux-Irox,2013-01-30 19:57:00,
2013-01-30 12:01:00,57.4,23.2,29.85,West,270,6.7,11.1,5,0.00,,,-99.99,0.0,Linux-Irox,2013-01-30 20:01:00,
2013-01-30 12:07:00,57.4,23.2,29.85,West,270,2.9,5.1,5,0.00,,,-99.99,0.0,Linux-Irox,2013-01-30 20:07:00,
2013-01-30 12:16:00,57.7,23.5,29.85,WSW,247,4.0,6.7,5,0.00,,,-99.99,0.0,Linux-Irox,2013-01-30 20:16:00,
2013-01-30 12:17:00,57.7,23.5,29.85,WSW,247,1.8,2.0,5,0.00,,,-99.99,0.0,Linux-Irox,2013-01-30 20:17:00,
2013-01-30 12:27:00,57.6,23.4,29.85,NW,315,2.0,3.3,5,0.00,,,-99.99,0.0,Linux-Irox,2013-01-30 20:27:00,
2013-01-30 12:31:00,57.6,23.4,29.85,SW,225,4.9,6.0,5,0.00,,,-99.99,0.0,Linux-Irox,2013-01-30 20:31:00,
2013-01-30 12:37:00,57.6,23.4,29.84,WSW,247,2.5,3.3,5,0.00,,,-99.99,0.0,Linux-Irox,2013-01-30 20:37:00,
2013-01-30 12:46:00,57.4,23.2,29.84,WSW,247,5.6,7.8,5,0.00,,,-99.99,0.0,Linux-Irox,2013-01-30 20:46:00,
2013-01-30 12:47:00,57.2,23.0,29.84,WSW,247,2.7,3.3,5,0.00,,,-99.99,0.0,Linux-Irox,2013-01-30 20:47:00,
2013-01-30 12:57:00,57.6,23.4,29.83,West,270,1.8,4.2,5,0.00,,,-99.99,0.0,Linux-Irox,2013-01-30 20:57:00,
2013-01-30 13:01:00,57.2,23.0,29.83,WSW,247,4.0,5.4,5,0.00,,,-99.99,0.0,Linux-Irox,2013-01-30 21:01:00,
2013-01-30 13:07:00,57.4,23.2,29.83,WNW,292,2.0,2.2,5,0.00,,,-99.99,0.0,Linux-Irox,2013-01-30 21:07:00,
2013-01-30 13:16:00,57.4,23.2,29.83,West,270,5.1,8.7,5,0.00,,,-99.99,0.0,Linux-Irox,2013-01-30 21:16:00,
2013-01-30 13:17:00,57.6,23.4,29.83,WSW,247,2.5,3.6,5,0.00,,,-99.99,0.0,Linux-Irox,2013-01-30 21:17:00,
2013-01-30 13:27:00,57.4,23.2,29.83,SW,225,1.6,3.8,5,0.00,,,-99.99,0.0,Linux-Irox,2013-01-30 21:27:00,
2013-01-30 13:31:00,57.4,23.2,29.83,West,270,4.5,6.2,5,0.00,,,-99.99,0.0,Linux-Irox,2013-01-30 21:31:00,
2013-01-30 13:37:00,57.6,23.4,29.82,WSW,247,2.9,2.9,5,0.00,,,-99.99,0.0,Linux-Irox,2013-01-30 21:37:00,
2013-01-30 13:46:00,57.7,25.3,29.82,West,270,4.5,4.5,10,0.00,,,-99.99,0.0,Linux-Irox,2013-01-30 21:46:00,
2013-01-30 13:47:00,57.4,25.0,29.82,South,180,1.8,1.8,10,0.00,,,-99.99,0.0,Linux-Irox,2013-01-30 21:47:00,
2013-01-30 13:57:00,57.4,25.0,29.82,WSW,247,3.3,3.8,10,0.00,,,-99.99,0.0,Linux-Irox,2013-01-30 21:57:00,
2013-01-30 14:01:00,57.6,23.4,29.82,WSW,247,7.1,11.6,5,0.00,,,-99.99,0.0,Linux-Irox,2013-01-30 22:01:00,
2013-01-30 14:07:00,57.2,24.8,29.82,West,270,2.7,2.7,10,0.00,,,-99.99,0.0,Linux-Irox,2013-01-30 22:07:00,
2013-01-30 14:16:00,57.6,23.4,29.82,WSW,247,6.7,12.7,5,0.00,,,-99.99,0.0,Linux-Irox,2013-01-30 22:16:00,
2013-01-30 14:17:00,57.4,25.0,29.82,SW,225,2.9,2.9,10,0.00,,,-99.99,0.0,Linux-Irox,2013-01-30 22:17:00,
2013-01-30 14:27:00,57.6,25.2,29.82,SW,225,2.0,3.3,10,0.00,,,-99.99,0.0,Linux-Irox,2013-01-30 22:27:00,
2013-01-30 14:31:00,57.6,25.2,29.82,WSW,247,5.6,6.9,10,0.00,,,-99.99,0.0,Linux-Irox,2013-01-30 22:31:00,
2013-01-30 14:37:00,57.6,25.2,29.82,SW,225,2.5,2.5,10,0.00,,,-99.99,0.0,Linux-Irox,2013-01-30 22:37:00,
2013-01-30 14:46:00,56.5,22.3,29.82,West,270,3.8,3.8,5,0.00,,,-99.99,0.0,Linux-Irox,2013-01-30 22:46:00,
2013-01-30 14:47:00,56.8,24.8,29.82,South,180,1.8,2.9,11,0.00,,,-99.99,0.0,Linux-Irox,2013-01-30 22:47:00,
2013-01-30 14:57:00,56.7,22.5,29.80,WSW,247,2.2,3.1,5,0.00,,,-99.99,0.0,Linux-Irox,2013-01-30 22:57:00,
2013-01-30 15:01:00,56.3,24.3,29.80,WSW,247,5.1,7.1,11,0.00,,,-99.99,0.0,Linux-Irox,2013-01-30 23:01:00,
2013-01-30 15:07:00,55.6,23.5,29.80,South,180,1.1,0.0,11,0.00,,,-99.99,0.0,Linux-Irox,2013-01-30 23:07:00,
2013-01-30 15:16:00,55.2,22.8,29.80,ESE,112,0.7,3.8,10,0.00,,,-99.99,0.0,Linux-Irox,2013-01-30 23:16:00,
2013-01-30 15:17:00,55.2,22.8,29.79,West,270,0.4,3.1,10,0.00,,,-99.99,0.0,Linux-Irox,2013-01-30 23:17:00,
2013-01-30 15:27:00,55.2,22.8,29.79,WSW,247,2.0,2.7,10,0.00,,,-99.99,0.0,Linux-Irox,2013-01-30 23:27:00,
2013-01-30 15:31:00,55.0,22.6,29.79,South,180,3.8,3.8,10,0.00,,,-99.99,0.0,Linux-Irox,2013-01-30 23:31:00,
2013-01-30 15:37:00,55.2,22.8,29.80,South,180,1.8,1.8,10,0.00,,,-99.99,0.0,Linux-Irox,2013-01-30 23:37:00,
2013-01-30 15:46:00,54.7,22.3,29.80,ESE,112,2.7,4.5,10,0.00,,,-99.99,0.0,Linux-Irox,2013-01-30 23:46:00,
2013-01-30 15:47:00,54.7,22.3,29.80,South,180,0.9,1.3,10,0.00,,,-99.99,0.0,Linux-Irox,2013-01-30 23:47:00,
2013-01-30 15:57:00,54.5,22.1,29.82,West,270,1.8,2.9,10,0.00,,,-99.99,0.0,Linux-Irox,2013-01-30 23:57:00,
2013-01-30 16:01:00,54.1,21.7,29.82,WSW,247,4.2,4.7,10,0.00,,,-99.99,0.0,Linux-Irox,2013-01-31 00:01:00,
2013-01-30 16:07:00,54.0,21.6,29.82,WSW,247,1.1,4.5,10,0.00,,,-99.99,0.0,Linux-Irox,2013-01-31 00:07:00,
2013-01-30 16:16:00,53.4,21.0,29.82,SE,135,3.3,3.3,10,0.00,,,-99.99,0.0,Linux-Irox,2013-01-31 00:16:00,
2013-01-30 16:17:00,53.2,20.8,29.81,WSW,247,1.3,1.3,10,0.00,,,-99.99,0.0,Linux-Irox,2013-01-31 00:17:00,
2013-01-30 16:27:00,52.9,20.5,29.81,South,180,0.9,0.0,10,0.00,,,-99.99,0.0,Linux-Irox,2013-01-31 00:27:00,
2013-01-30 16:31:00,52.7,20.3,29.81,WSW,247,2.0,4.7,10,0.00,,,-99.99,0.0,Linux-Irox,2013-01-31 00:31:00,
2013-01-30 16:37:00,52.5,20.1,29.81,SW,225,1.3,1.6,10,0.00,,,-99.99,0.0,Linux-Irox,2013-01-31 00:37:00,
2013-01-30 16:46:00,52.0,19.6,29.81,West,270,3.3,4.7,10,0.00,,,-99.99,0.0,Linux-Irox,2013-01-31 00:46:00,
2013-01-30 16:47:00,51.8,19.4,29.81,West,270,1.6,1.8,10,0.00,,,-99.99,0.0,Linux-Irox,2013-01-31 00:47:00,
2013-01-30 16:57:00,50.9,19.6,29.82,West,270,0.9,0.0,13,0.00,,,-99.99,0.0,Linux-Irox,2013-01-31 00:57:00,
2013-01-30 17:01:00,50.2,18.9,29.82,West,270,0.9,0.0,13,0.00,,,-99.99,0.0,Linux-Irox,2013-01-31 01:01:00,
2013-01-30 17:07:00,49.8,18.9,29.82,NNW,337,0.0,0.0,14,0.00,,,-99.99,0.0,Linux-Irox,2013-01-31 01:07:00,
2013-01-30 17:16:00,49.6,18.7,29.82,NNE,22,0.0,0.0,14,0.00,,,-99.99,0.0,Linux-Irox,2013-01-31 01:16:00,
2013-01-30 17:17:00,49.3,19.0,29.82,NNE,22,0.0,0.0,16,0.00,,,-99.99,0.0,Linux-Irox,2013-01-31 01:17:00,
2013-01-30 17:27:00,48.4,18.1,29.82,NNE,22,0.0,0.0,16,0.00,,,-99.99,0.0,Linux-Irox,2013-01-31 01:27:00,
2013-01-30 17:31:00,48.0,18.9,29.82,NW,315,0.0,0.0,19,0.00,,,-99.99,0.0,Linux-Irox,2013-01-31 01:31:00,
2013-01-30 17:37:00,47.7,18.5,29.82,NNE,22,0.0,0.0,19,0.00,,,-99.99,0.0,Linux-Irox,2013-01-31 01:37:00,
2013-01-30 17:46:00,47.1,18.3,29.82,NNE,22,0.0,0.0,20,0.00,,,-99.99,0.0,Linux-Irox,2013-01-31 01:46:00,
2013-01-30 17:47:00,47.1,18.3,29.82,NNE,22,0.0,0.0,20,0.00,,,-99.99,0.0,Linux-Irox,2013-01-31 01:47:00,
2013-01-30 17:57:00,46.8,18.3,29.83,NNE,22,0.0,0.0,21,0.00,,,-99.99,0.0,Linux-Irox,2013-01-31 01:57:00,
2013-01-30 18:01:00,46.4,18.0,29.83,NNE,22,0.0,0.0,21,0.00,,,-99.99,0.0,Linux-Irox,2013-01-31 02:01:00,
2013-01-30 18:07:00,46.2,18.1,29.83,NNE,22,0.0,0.0,22,0.00,,,-99.99,0.0,Linux-Irox,2013-01-31 02:07:00,
2013-01-30 18:16:00,45.9,17.8,29.83,North,0,0.0,0.0,22,0.00,,,-99.99,0.0,Linux-Irox,2013-01-31 02:16:00,
2013-01-30 18:17:00,45.7,18.0,29.84,North,0,0.0,0.0,23,0.00,,,-99.99,0.0,Linux-Irox,2013-01-31 02:17:00,
2013-01-30 18:27:00,45.3,17.6,29.84,NNE,22,0.0,0.0,23,0.00,,,-99.99,0.0,Linux-Irox,2013-01-31 02:27:00,
2013-01-30 18:31:00,45.3,17.6,29.84,NE,45,0.0,0.0,23,0.00,,,-99.99,0.0,Linux-Irox,2013-01-31 02:31:00,
2013-01-30 18:37:00,45.3,18.0,29.83,NNE,22,0.0,0.0,24,0.00,,,-99.99,0.0,Linux-Irox,2013-01-31 02:37:00,
2013-01-30 18:46:00,45.1,17.8,29.83,NE,45,0.0,0.0,24,0.00,,,-99.99,0.0,Linux-Irox,2013-01-31 02:46:00,
2013-01-30 18:47:00,45.0,17.6,29.83,NNE,22,0.0,0.0,24,0.00,,,-99.99,0.0,Linux-Irox,2013-01-31 02:47:00,
2013-01-30 18:57:00,44.4,17.4,29.84,NNW,337,0.0,0.0,25,0.00,,,-99.99,0.0,Linux-Irox,2013-01-31 02:57:00,
2013-01-30 19:01:00,44.2,17.6,29.84,ENE,67,0.0,0.0,26,0.00,,,-99.99,0.0,Linux-Irox,2013-01-31 03:01:00,
2013-01-30 19:07:00,44.4,18.5,29.84,NNE,22,0.0,0.0,28,0.00,,,-99.99,0.0,Linux-Irox,2013-01-31 03:07:00,
2013-01-30 19:16:00,44.4,18.5,29.84,NE,45,0.0,0.0,28,0.00,,,-99.99,0.0,Linux-Irox,2013-01-31 03:16:00,
2013-01-30 19:17:00,44.2,18.3,29.82,NNE,22,0.0,0.0,28,0.00,,,-99.99,0.0,Linux-Irox,2013-01-31 03:17:00,
2013-01-30 19:27:00,43.7,18.1,29.82,ENE,67,0.0,0.0,29,0.00,,,-99.99,0.0,Linux-Irox,2013-01-31 03:27:00,
2013-01-30 19:31:00,43.3,17.8,29.82,NNW,337,0.0,0.0,29,0.00,,,-99.99,0.0,Linux-Irox,2013-01-31 03:31:00,
2013-01-30 19:37:00,43.7,18.9,29.82,NE,45,0.0,0.0,31,0.00,,,-99.99,0.0,Linux-Irox,2013-01-31 03:37:00,
2013-01-30 19:46:00,43.3,18.5,29.82,NE,45,0.0,0.0,31,0.00,,,-99.99,0.0,Linux-Irox,2013-01-31 03:46:00,
2013-01-30 19:47:00,43.3,18.5,29.82,NNE,22,0.0,0.0,31,0.00,,,-99.99,0.0,Linux-Irox,2013-01-31 03:47:00,
2013-01-30 19:57:00,43.2,18.3,29.82,NE,45,0.0,0.0,31,0.00,,,-99.99,0.0,Linux-Irox,2013-01-31 03:57:00,
2013-01-30 20:01:00,43.2,18.3,29.82,North,0,0.0,0.0,31,0.00,,,-99.99,0.0,Linux-Irox,2013-01-31 04:01:00,
2013-01-30 20:07:00,42.8,18.3,29.82,NE,45,0.0,0.0,32,0.00,,,-99.99,0.0,Linux-Irox,2013-01-31 04:07:00,
2013-01-30 20:17:00,42.8,18.3,29.82,ENE,67,0.0,0.0,32,0.00,,,-99.99,0.0,Linux-Irox,2013-01-31 04:17:00,
2013-01-30 20:27:00,42.6,17.8,29.82,NNW,337,0.0,0.0,31,0.00,,,-99.99,0.0,Linux-Irox,2013-01-31 04:27:00,
2013-01-30 20:37:00,42.3,17.4,29.82,North,0,0.0,0.0,31,0.00,,,-99.99,0.0,Linux-Irox,2013-01-31 04:37:00,
2013-01-30 20:47:00,42.6,18.1,29.82,NE,45,0.0,0.0,32,0.00,,,-99.99,0.0,Linux-Irox,2013-01-31 04:47:00,
2013-01-30 20:57:00,42.6,18.5,29.82,NE,45,0.0,0.0,33,0.00,,,-99.99,0.0,Linux-Irox,2013-01-31 04:57:00,
2013-01-30 21:07:00,42.3,18.1,29.82,NNE,22,0.0,0.0,33,0.00,,,-99.99,0.0,Linux-Irox,2013-01-31 05:07:00,
2013-01-30 21:17:00,42.3,18.5,29.82,NNE,22,0.0,0.0,34,0.00,,,-99.99,0.0,Linux-Irox,2013-01-31 05:17:00,
2013-01-30 21:27:00,42.1,18.3,29.82,NE,45,0.0,0.0,34,0.00,,,-99.99,0.0,Linux-Irox,2013-01-31 05:27:00,
2013-01-30 21:37:00,42.4,19.4,29.83,ENE,67,0.0,0.0,36,0.00,,,-99.99,0.0,Linux-Irox,2013-01-31 05:37:00,
2013-01-30 21:47:00,42.3,19.2,29.83,NE,45,0.0,0.0,36,0.00,,,-99.99,0.0,Linux-Irox,2013-01-31 05:47:00,
2013-01-30 21:57:00,42.4,20.8,29.82,NE,45,0.0,0.0,40,0.00,,,-99.99,0.0,Linux-Irox,2013-01-31 05:57:00,
2013-01-30 22:07:00,42.3,20.3,29.82,NE,45,0.0,0.0,39,0.00,,,-99.99,0.0,Linux-Irox,2013-01-31 06:07:00,
2013-01-30 22:17:00,42.1,19.8,29.83,ENE,67,0.0,0.0,38,0.00,,,-99.99,0.0,Linux-Irox,2013-01-31 06:17:00,
2013-01-30 22:27:00,42.1,20.1,29.83,NE,45,0.0,0.0,39,0.00,,,-99.99,0.0,Linux-Irox,2013-01-31 06:27:00,
2013-01-30 22:37:00,41.5,19.2,29.83,NE,45,0.0,0.0,38,0.00,,,-99.99,0.0,Linux-Irox,2013-01-31 06:37:00,
2013-01-30 22:47:00,41.5,19.6,29.83,NE,45,0.0,0.0,39,0.00,,,-99.99,0.0,Linux-Irox,2013-01-31 06:47:00,
2013-01-30 22:57:00,42.3,21.0,29.83,NE,45,0.0,0.0,41,0.00,,,-99.99,0.0,Linux-Irox,2013-01-31 06:57:00,
2013-01-30 23:07:00,42.3,21.0,29.83,NE,45,0.0,0.0,41,0.00,,,-99.99,0.0,Linux-Irox,2013-01-31 07:07:00,
2013-01-30 23:17:00,42.1,21.2,29.84,NE,45,0.0,0.0,42,0.00,,,-99.99,0.0,Linux-Irox,2013-01-31 07:17:00,
2013-01-30 23:27:00,42.4,22.3,29.84,NE,45,0.0,0.0,44,0.00,,,-99.99,0.0,Linux-Irox,2013-01-31 07:27:00,
2013-01-30 23:37:00,42.3,21.7,29.84,ENE,67,0.0,0.0,43,0.00,,,-99.99,0.0,Linux-Irox,2013-01-31 07:37:00,
2013-01-30 23:47:00,41.7,20.8,29.84,ENE,67,0.0,0.0,42,0.00,,,-99.99,0.0,Linux-Irox,2013-01-31 07:47:00,
2013-01-30 23:57:00,41.2,20.3,29.84,NE,45,0.0,0.0,42,0.00,,,-99.99,0.0,Linux-Irox,2013-01-31 07:57:00,